createdAt,value
2023-03-06T00:00:06.355Z,61.83
2023-03-06T00:02:39.605Z,68.78
2023-03-06T00:05:09.261Z,74.80
2023-03-06T00:07:36.935Z,80.82
2023-03-06T00:10:05.051Z,85.00
2023-03-06T00:12:32.814Z,94.03
2023-03-06T00:15:00.491Z,103.10
2023-03-06T00:17:28.699Z,114.32
2023-03-06T00:19:56.439Z,121.03
2023-03-06T00:22:25.429Z,129.45
2023-03-06T00:24:54.276Z,140.38
2023-03-06T00:27:21.979Z,147.10
2023-03-06T00:29:50.404Z,149.30
2023-03-06T00:32:18.104Z,167.15
2023-03-06T00:34:45.817Z,170.55
2023-03-06T00:37:15.131Z,189.13
2023-03-06T00:39:44.152Z,199.02
2023-03-06T00:42:11.880Z,204.63
2023-03-06T00:44:39.651Z,214.98
2023-03-06T00:47:07.573Z,220.35
2023-03-06T00:49:35.379Z,233.13
2023-03-06T00:52:03.051Z,253.43
2023-03-06T00:54:30.769Z,264.70
2023-03-06T00:56:59.751Z,259.88
2023-03-06T00:59:28.461Z,275.48
2023-03-06T01:01:56.141Z,282.42
2023-03-06T01:04:23.857Z,299.20
2023-03-06T01:06:51.527Z,312.27
2023-03-06T01:09:19.191Z,320.52
2023-03-06T01:11:47.012Z,324.80
2023-03-06T01:14:16.097Z,324.58
2023-03-06T01:16:43.816Z,344.00
2023-03-06T01:19:11.552Z,345.75
2023-03-06T01:21:40.054Z,357.58
2023-03-06T01:24:08.246Z,366.52
2023-03-06T01:26:35.915Z,372.00
2023-03-06T01:29:03.646Z,376.38
2023-03-06T01:31:32.794Z,390.45
2023-03-06T01:34:00.646Z,391.05
2023-03-06T01:36:28.428Z,405.17
2023-03-06T01:38:56.142Z,397.55
2023-03-06T01:41:24.230Z,412.73
2023-03-06T01:43:51.926Z,431.30
2023-03-06T01:46:29.938Z,429.60
2023-03-06T01:49:00.022Z,444.25
2023-03-06T01:51:31.132Z,441.00
2023-03-06T01:53:59.055Z,442.20
2023-03-06T01:56:26.761Z,445.88
2023-03-06T01:58:54.482Z,449.95
2023-03-06T02:01:22.366Z,452.38
2023-03-06T02:03:50.122Z,470.48
2023-03-06T02:06:21.626Z,461.90
2023-03-06T02:08:49.707Z,473.83
2023-03-06T02:11:18.296Z,465.92
2023-03-06T02:13:46.190Z,487.23
2023-03-06T02:16:14.082Z,479.45
2023-03-06T02:18:41.882Z,486.92
2023-03-06T02:21:10.168Z,486.08
2023-03-06T02:23:43.929Z,490.98
2023-03-06T02:26:13.011Z,487.10
2023-03-06T02:28:40.813Z,497.00
2023-03-06T02:31:08.631Z,496.27
2023-03-06T02:33:36.363Z,494.98
2023-03-06T02:36:04.754Z,498.83
2023-03-06T02:38:35.117Z,498.83
2023-03-06T02:41:03.003Z,503.95
2023-03-06T02:43:34.406Z,520.20
2023-03-06T02:46:03.186Z,512.15
2023-03-06T02:48:30.866Z,516.25
2023-03-06T02:50:58.630Z,514.65
2023-03-06T02:53:27.131Z,513.20
2023-03-06T02:55:54.810Z,517.53
2023-03-06T02:58:22.492Z,514.88
2023-03-06T03:00:51.500Z,517.88
2023-03-06T03:03:20.765Z,529.78
2023-03-06T03:05:48.453Z,534.22
2023-03-06T03:08:23.326Z,527.13
2023-03-06T03:10:56.002Z,532.97
2023-03-06T03:13:24.451Z,528.10
2023-03-06T03:16:01.215Z,531.45
2023-03-06T03:18:28.986Z,528.88
2023-03-06T03:20:56.778Z,535.05
2023-03-06T03:23:24.527Z,540.75
2023-03-06T03:25:52.218Z,533.72
2023-03-06T03:28:20.614Z,538.33
2023-03-06T03:30:48.429Z,540.03
2023-03-06T03:33:17.749Z,527.03
2023-03-06T03:35:45.613Z,533.20
2023-03-06T03:38:13.353Z,528.38
2023-03-06T03:40:41.102Z,543.28
2023-03-06T03:43:09.535Z,541.40
2023-03-06T03:45:37.983Z,534.95
2023-03-06T03:48:05.957Z,538.67
2023-03-06T03:50:35.274Z,530.92
2023-03-06T03:53:03.036Z,541.72
2023-03-06T03:55:31.033Z,551.85
2023-03-06T03:57:58.884Z,544.03
2023-03-06T04:00:27.389Z,539.45
2023-03-06T04:03:07.337Z,540.65
2023-03-06T04:05:40.629Z,538.80
2023-03-06T04:08:09.945Z,545.50
2023-03-06T04:10:41.973Z,545.67
2023-03-06T04:13:10.967Z,547.38
2023-03-06T04:15:42.835Z,555.80
2023-03-06T04:18:11.646Z,554.30
2023-03-06T04:20:41.233Z,547.13
2023-03-06T04:23:08.994Z,538.17
2023-03-06T04:25:36.782Z,544.45
2023-03-06T04:28:07.081Z,539.95
2023-03-06T04:30:35.599Z,539.22
2023-03-06T04:33:03.926Z,545.17
2023-03-06T04:35:32.174Z,530.17
2023-03-06T04:38:05.801Z,533.60
2023-03-06T04:40:34.708Z,533.13
2023-03-06T04:43:02.810Z,529.30
2023-03-06T04:45:30.983Z,528.22
2023-03-06T04:47:59.044Z,531.70
2023-03-06T04:50:27.989Z,528.47
2023-03-06T04:52:55.698Z,523.28
2023-03-06T04:55:24.696Z,512.58
2023-03-06T04:57:52.520Z,519.20
2023-03-06T05:00:21.286Z,513.22
2023-03-06T05:02:49.518Z,507.88
2023-03-06T05:05:17.674Z,518.78
2023-03-06T05:07:45.570Z,512.33
2023-03-06T05:10:14.316Z,516.60
2023-03-06T05:12:43.321Z,509.85
2023-03-06T05:15:12.541Z,502.65
2023-03-06T05:17:40.406Z,497.45
2023-03-06T05:20:09.614Z,505.85
2023-03-06T05:22:37.439Z,507.60
2023-03-06T05:25:05.790Z,498.98
2023-03-06T05:27:33.772Z,484.70
2023-03-06T05:30:03.627Z,486.15
2023-03-06T05:32:32.415Z,479.35
2023-03-06T05:35:01.613Z,472.70
2023-03-06T05:37:29.273Z,485.95
2023-03-06T05:39:57.026Z,472.15
2023-03-06T05:42:26.016Z,470.83
2023-03-06T05:44:55.249Z,474.65
2023-03-06T05:47:24.317Z,466.48
2023-03-06T05:49:52.140Z,460.77
2023-03-06T05:52:19.839Z,457.15
2023-03-06T05:54:50.538Z,447.63
2023-03-06T05:57:19.408Z,443.88
2023-03-06T05:59:47.072Z,447.17
2023-03-06T06:02:14.768Z,448.30
2023-03-06T06:04:43.904Z,437.30
2023-03-06T06:07:13.519Z,438.65
2023-03-06T06:09:41.264Z,440.98
2023-03-06T06:12:09.456Z,431.83
2023-03-06T06:14:37.220Z,429.58
2023-03-06T06:17:04.939Z,428.85
2023-03-06T06:19:32.682Z,421.45
2023-03-06T06:22:02.553Z,426.55
2023-03-06T06:24:30.300Z,418.88
2023-03-06T06:26:58.781Z,418.05
2023-03-06T06:29:26.587Z,407.10
2023-03-06T06:31:54.361Z,404.55
2023-03-06T06:34:22.398Z,403.67
2023-03-06T06:36:52.914Z,392.50
2023-03-06T06:39:23.410Z,395.05
2023-03-06T06:42:05.653Z,392.73
2023-03-06T06:44:38.944Z,393.60
2023-03-06T06:47:22.424Z,377.10
2023-03-06T06:49:52.601Z,391.80
2023-03-06T06:52:20.307Z,384.60
2023-03-06T06:54:49.398Z,379.35
2023-03-06T06:57:17.256Z,376.65
2023-03-06T06:59:44.977Z,370.83
2023-03-06T07:02:12.790Z,358.63
2023-03-06T07:04:52.331Z,362.15
2023-03-06T07:07:28.215Z,363.50
2023-03-06T07:09:57.524Z,356.30
2023-03-06T07:12:25.217Z,359.42
2023-03-06T07:14:52.931Z,354.10
2023-03-06T07:17:20.662Z,347.45
2023-03-06T07:19:48.535Z,356.67
2023-03-06T07:22:16.238Z,349.08
2023-03-06T07:24:43.995Z,337.70
2023-03-06T07:27:13.188Z,341.83
2023-03-06T07:29:42.931Z,337.30
2023-03-06T07:32:10.719Z,334.42
2023-03-06T07:34:38.629Z,327.80
2023-03-06T07:37:06.330Z,327.88
2023-03-06T07:39:34.020Z,317.98
2023-03-06T07:42:01.742Z,322.80
2023-03-06T07:44:30.777Z,314.70
2023-03-06T07:46:58.530Z,311.30
2023-03-06T07:49:26.280Z,305.13
2023-03-06T07:51:53.941Z,302.45
2023-03-06T07:54:21.744Z,300.25
2023-03-06T07:56:51.195Z,296.85
2023-03-06T07:59:18.994Z,299.55
2023-03-06T08:01:48.010Z,294.00
2023-03-06T08:04:15.814Z,288.42
2023-03-06T08:06:43.542Z,289.38
2023-03-06T08:09:11.234Z,283.00
2023-03-06T08:11:38.935Z,290.40
2023-03-06T08:14:06.611Z,285.95
2023-03-06T08:16:34.336Z,279.08
2023-03-06T08:19:03.402Z,265.45
2023-03-06T08:21:31.136Z,267.52
2023-03-06T08:23:58.978Z,269.10
2023-03-06T08:26:27.452Z,264.00
2023-03-06T08:28:55.331Z,256.83
2023-03-06T08:31:26.452Z,258.77
2023-03-06T08:33:54.279Z,258.60
2023-03-06T08:36:23.809Z,247.00
2023-03-06T08:38:51.547Z,242.98
2023-03-06T08:41:20.349Z,248.98
2023-03-06T08:43:48.131Z,234.75
2023-03-06T08:46:15.800Z,244.70
2023-03-06T08:48:43.514Z,238.82
2023-03-06T08:51:11.284Z,232.05
2023-03-06T08:53:43.547Z,234.52
2023-03-06T08:56:17.225Z,230.90
2023-03-06T08:58:44.898Z,221.68
2023-03-06T09:01:16.166Z,222.30
2023-03-06T09:03:43.915Z,203.95
2023-03-06T09:06:11.717Z,208.60
2023-03-06T09:08:43.039Z,198.38
2023-03-06T09:11:10.896Z,214.18
2023-03-06T09:13:38.599Z,199.05
2023-03-06T09:16:07.034Z,202.90
2023-03-06T09:18:34.726Z,190.40
2023-03-06T09:21:02.469Z,179.48
2023-03-06T09:23:30.184Z,184.13
2023-03-06T09:25:59.800Z,184.52
2023-03-06T09:28:27.493Z,179.50
2023-03-06T09:30:55.297Z,179.95
2023-03-06T09:33:23.276Z,177.20
2023-03-06T09:35:51.886Z,169.48
2023-03-06T09:38:19.798Z,171.73
2023-03-06T09:40:56.329Z,175.18
2023-03-06T09:43:28.006Z,158.55
2023-03-06T09:45:55.771Z,158.32
2023-03-06T09:48:24.061Z,159.32
2023-03-06T09:50:52.369Z,153.35
2023-03-06T09:53:29.840Z,152.45
2023-03-06T09:55:59.947Z,153.10
2023-03-06T09:58:29.648Z,150.00
2023-03-06T10:01:00.713Z,152.13
2023-03-06T10:03:30.072Z,138.63
2023-03-06T10:06:02.217Z,143.82
2023-03-06T10:08:31.916Z,141.52
2023-03-06T10:11:01.796Z,136.35
2023-03-06T10:13:34.035Z,136.52
2023-03-06T10:16:04.874Z,140.18
2023-03-06T10:18:32.973Z,135.25
2023-03-06T10:21:18.506Z,132.15
2023-03-06T10:23:51.403Z,126.78
2023-03-06T10:26:20.828Z,128.85
2023-03-06T10:28:53.738Z,128.13
2023-03-06T10:31:23.572Z,121.65
2023-03-06T10:33:55.259Z,121.88
2023-03-06T10:36:25.324Z,122.03
2023-03-06T10:38:53.039Z,115.38
2023-03-06T10:41:24.539Z,117.03
2023-03-06T10:44:23.367Z,111.78
2023-03-06T10:46:52.425Z,108.30
2023-03-06T10:49:35.568Z,108.35
2023-03-06T10:52:05.333Z,104.97
2023-03-06T10:54:33.952Z,108.30
2023-03-06T10:57:20.431Z,103.47
2023-03-06T10:59:56.143Z,100.95
2023-03-06T11:02:31.268Z,95.78
2023-03-06T11:04:59.923Z,98.82
2023-03-06T11:07:28.387Z,97.13
2023-03-06T11:10:06.037Z,94.85
2023-03-06T11:12:34.118Z,97.05
2023-03-06T11:15:14.039Z,93.40
2023-03-06T11:17:50.169Z,92.28
2023-03-06T11:20:18.928Z,92.30
2023-03-06T11:22:49.139Z,90.53
2023-03-06T11:25:17.860Z,88.25
2023-03-06T11:27:46.516Z,84.65
2023-03-06T11:30:18.750Z,87.80
2023-03-06T11:32:50.247Z,80.18
2023-03-06T11:35:21.229Z,76.32
2023-03-06T11:37:53.772Z,77.47
2023-03-06T11:40:24.638Z,73.88
2023-03-06T11:42:56.700Z,76.13
2023-03-06T11:45:28.482Z,75.10
2023-03-06T11:48:01.635Z,71.45
2023-03-06T11:50:32.040Z,69.15
2023-03-06T11:53:01.363Z,67.13
2023-03-06T11:55:40.043Z,66.65
2023-03-06T11:58:18.983Z,63.60
2023-03-06T12:00:51.070Z,67.15
2023-03-06T12:03:42.730Z,61.85
2023-03-06T12:06:11.731Z,62.00
2023-03-06T12:08:45.984Z,62.38
2023-03-06T12:14:29.568Z,59.75
2023-03-06T12:17:10.323Z,59.08
2023-03-06T12:19:44.330Z,55.05
2023-03-06T12:22:24.646Z,55.95
2023-03-06T12:24:58.619Z,54.00
2023-03-06T12:27:28.958Z,54.13
2023-03-06T12:30:17.930Z,54.03
2023-03-06T12:32:49.675Z,51.78
2023-03-06T12:35:27.443Z,50.08
2023-03-06T12:38:00.222Z,50.92
2023-03-06T12:40:55.229Z,48.92
2023-03-06T12:43:52.766Z,45.20
2023-03-06T12:46:21.682Z,44.75
2023-03-06T12:48:57.673Z,42.50
2023-03-06T12:51:25.356Z,40.75
2023-03-06T12:53:53.056Z,42.03
2023-03-06T12:56:21.774Z,41.60
2023-03-06T12:58:50.996Z,40.90
2023-03-06T13:01:48.734Z,37.95
2023-03-06T13:04:28.948Z,39.08
2023-03-06T13:07:03.292Z,37.17
2023-03-06T13:09:32.383Z,36.30
2023-03-06T13:12:19.784Z,37.55
2023-03-06T13:14:58.248Z,37.55
2023-03-06T13:17:28.566Z,36.03
2023-03-06T13:20:26.922Z,34.28
2023-03-06T13:22:54.623Z,34.17
2023-03-06T13:25:47.982Z,34.30
2023-03-06T13:28:24.523Z,33.40
2023-03-06T13:30:53.257Z,33.53
2023-03-06T13:33:52.910Z,33.33
2023-03-06T13:36:29.385Z,31.58
2023-03-06T13:39:01.663Z,31.20
2023-03-06T13:41:43.416Z,31.73
2023-03-06T13:44:48.728Z,28.35
2023-03-06T13:48:06.516Z,29.58
2023-03-06T13:50:35.811Z,28.27
2023-03-06T13:53:20.938Z,29.00
2023-03-06T13:55:53.291Z,28.08
2023-03-06T13:58:31.152Z,27.85
2023-03-06T14:01:10.377Z,26.83
2023-03-06T14:04:03.114Z,26.90
2023-03-06T14:06:42.643Z,25.75
2023-03-06T14:09:16.694Z,25.10
2023-03-06T14:11:47.288Z,25.38
2023-03-06T14:14:14.983Z,24.58
2023-03-06T14:16:50.030Z,24.40
2023-03-06T14:19:18.407Z,22.83
2023-03-06T14:21:48.246Z,23.30
2023-03-06T14:24:18.133Z,23.13
2023-03-06T14:26:47.434Z,22.70
2023-03-06T14:29:21.989Z,22.45
2023-03-06T14:31:50.743Z,21.38
2023-03-06T14:34:20.995Z,22.15
2023-03-06T14:36:49.766Z,20.13
2023-03-06T14:39:22.006Z,19.40
2023-03-06T14:41:49.679Z,20.67
2023-03-06T14:44:19.245Z,20.33
2023-03-06T14:46:47.830Z,19.05
2023-03-06T14:49:16.005Z,18.52
2023-03-06T14:51:44.385Z,18.00
2023-03-06T14:54:15.509Z,18.77
2023-03-06T14:56:45.903Z,17.63
2023-03-06T14:59:16.291Z,17.67
2023-03-06T15:01:45.969Z,17.40
2023-03-06T15:04:18.738Z,17.08
2023-03-06T15:06:46.623Z,17.00
2023-03-06T15:09:15.991Z,16.88
2023-03-06T15:11:56.064Z,16.33
2023-03-06T15:14:30.445Z,16.25
2023-03-06T15:17:13.069Z,15.18
2023-03-06T15:19:41.300Z,15.65
2023-03-06T15:22:21.874Z,14.73
2023-03-06T15:24:49.562Z,15.18
2023-03-06T15:27:19.473Z,15.02
2023-03-06T15:29:47.143Z,14.63
2023-03-06T15:32:16.589Z,14.35
2023-03-06T15:34:44.365Z,14.75
2023-03-06T15:37:26.370Z,13.80
2023-03-06T15:40:09.074Z,13.43
2023-03-06T15:42:38.104Z,14.07
2023-03-06T15:45:16.024Z,13.52
2023-03-06T15:47:44.678Z,12.50
2023-03-06T15:50:16.644Z,12.52
2023-03-06T15:52:44.443Z,12.30
2023-03-06T15:55:12.862Z,12.63
2023-03-06T15:57:42.680Z,11.98
2023-03-06T16:00:27.780Z,11.80
2023-03-06T16:02:55.985Z,11.75
2023-03-06T16:05:24.290Z,11.80
2023-03-06T16:07:52.034Z,11.00
2023-03-06T16:10:20.738Z,11.45
2023-03-06T16:12:50.584Z,11.00
2023-03-06T16:15:22.289Z,10.70
2023-03-06T16:17:50.669Z,10.60
2023-03-06T16:20:19.586Z,10.80
2023-03-06T16:22:47.342Z,10.02
2023-03-06T16:25:16.124Z,10.00
2023-03-06T16:27:55.242Z,9.30
2023-03-06T16:30:24.469Z,9.30
2023-03-06T16:32:52.242Z,9.52
2023-03-06T16:35:20.021Z,9.32
2023-03-06T16:37:47.884Z,9.63
2023-03-06T16:40:22.034Z,8.63
2023-03-06T16:42:50.002Z,9.05
2023-03-06T16:45:18.281Z,8.98
2023-03-06T16:47:47.863Z,9.05
2023-03-06T16:50:24.393Z,8.50
2023-03-06T16:52:52.984Z,7.95
2023-03-06T16:55:20.882Z,8.65
2023-03-06T16:57:48.639Z,8.52
2023-03-06T17:00:17.017Z,7.95
2023-03-06T17:02:44.681Z,8.63
2023-03-06T17:05:13.800Z,7.93
2023-03-06T17:07:41.645Z,7.70
2023-03-06T17:10:13.239Z,7.32
2023-03-06T17:12:41.046Z,8.18
2023-03-06T17:15:09.611Z,7.43
2023-03-06T17:17:37.288Z,7.18
2023-03-06T17:20:05.691Z,7.25
2023-03-06T17:22:35.250Z,7.22
2023-03-06T17:25:03.159Z,6.97
2023-03-06T17:27:30.936Z,6.90
2023-03-06T17:29:58.943Z,7.10
2023-03-06T17:32:26.783Z,6.90
2023-03-06T17:34:54.604Z,6.65
2023-03-06T17:37:22.402Z,6.72
2023-03-06T17:39:51.565Z,6.90
2023-03-06T17:42:19.234Z,6.20
2023-03-06T17:44:47.849Z,6.28
2023-03-06T17:47:15.572Z,6.60
2023-03-06T17:49:43.463Z,6.63
2023-03-06T17:52:11.289Z,6.18
2023-03-06T17:54:39.009Z,6.38
2023-03-06T17:57:08.098Z,6.45
2023-03-06T17:59:35.803Z,5.90
2023-03-06T18:02:03.748Z,6.25
2023-03-06T18:04:31.496Z,5.93
2023-03-06T18:06:59.179Z,6.00
2023-03-06T18:09:26.978Z,6.20
2023-03-06T18:11:54.655Z,5.60
2023-03-06T18:14:24.250Z,5.80
2023-03-06T18:16:51.974Z,5.60
2023-03-06T18:19:19.728Z,5.50
2023-03-06T18:21:47.849Z,5.78
2023-03-06T18:24:15.651Z,6.00
2023-03-06T18:26:43.404Z,5.82
2023-03-06T18:29:11.066Z,5.70
2023-03-06T18:31:40.680Z,5.55
2023-03-06T18:34:09.103Z,5.43
2023-03-06T18:36:37.047Z,5.70
2023-03-06T18:39:05.925Z,5.10
2023-03-06T18:41:33.601Z,5.68
2023-03-06T18:44:01.688Z,5.00
2023-03-06T18:46:31.153Z,5.10
2023-03-06T18:49:00.197Z,5.00
2023-03-06T18:51:28.035Z,5.00
2023-03-06T18:53:57.425Z,4.95
2023-03-06T18:56:25.281Z,5.40
2023-03-06T18:58:53.749Z,5.20
2023-03-06T19:01:22.234Z,5.00
2023-03-06T19:03:50.264Z,5.00
2023-03-06T19:06:20.186Z,5.00
2023-03-06T19:08:47.964Z,4.90
2023-03-06T19:11:16.667Z,4.47
2023-03-06T19:13:44.654Z,4.72
2023-03-06T19:16:17.347Z,4.90
2023-03-06T19:18:45.027Z,4.70
2023-03-06T19:21:14.202Z,4.60
2023-03-06T19:23:43.234Z,4.57
2023-03-06T19:26:10.957Z,4.50
2023-03-06T19:28:39.363Z,4.78
2023-03-06T19:31:11.474Z,4.85
2023-03-06T19:33:39.360Z,4.65
2023-03-06T19:36:08.046Z,4.38
2023-03-06T19:38:35.764Z,4.55
2023-03-06T19:41:04.983Z,4.50
2023-03-06T19:43:32.667Z,4.38
2023-03-06T19:46:00.885Z,4.50
2023-03-06T19:48:28.567Z,4.40
2023-03-06T19:50:56.244Z,4.10
2023-03-06T19:53:23.986Z,4.22
2023-03-06T19:55:51.691Z,4.13
2023-03-06T19:58:20.713Z,4.22
2023-03-06T20:00:48.782Z,4.03
2023-03-06T20:03:16.449Z,4.13
2023-03-06T20:05:47.366Z,4.22
2023-03-06T20:08:15.106Z,4.10
2023-03-06T20:10:42.766Z,4.10
2023-03-06T20:13:10.438Z,4.07
2023-03-06T20:15:39.497Z,3.70
2023-03-06T20:18:07.214Z,3.97
2023-03-06T20:20:37.479Z,3.90
2023-03-06T20:23:05.147Z,3.92
2023-03-06T20:25:32.886Z,3.95
2023-03-06T20:28:00.544Z,4.00
2023-03-06T20:30:37.469Z,3.80
2023-03-06T20:33:07.229Z,3.78
2023-03-06T20:35:34.899Z,4.03
2023-03-06T20:38:02.567Z,3.90
2023-03-06T20:40:30.349Z,3.70
2023-03-06T20:42:58.038Z,3.75
2023-03-06T20:45:25.703Z,3.40
2023-03-06T20:47:56.095Z,3.80
2023-03-06T20:50:25.514Z,3.70
2023-03-06T20:52:54.371Z,3.60
2023-03-06T20:55:22.026Z,3.80
2023-03-06T20:57:50.638Z,3.80
2023-03-06T21:00:19.602Z,3.55
2023-03-06T21:02:47.386Z,3.38
2023-03-06T21:05:15.275Z,3.40
2023-03-06T21:07:44.282Z,3.30
2023-03-06T21:10:14.404Z,3.22
2023-03-06T21:12:42.256Z,3.58
2023-03-06T21:15:10.567Z,3.45
2023-03-06T21:17:38.737Z,3.05
2023-03-06T21:20:07.293Z,3.35
2023-03-06T21:22:34.949Z,3.35
2023-03-06T21:25:04.147Z,3.28
2023-03-06T21:27:31.827Z,3.45
2023-03-06T21:29:59.567Z,3.40
2023-03-06T21:32:27.290Z,3.30
2023-03-06T21:34:54.945Z,3.17
2023-03-06T21:37:22.645Z,3.13
2023-03-06T21:39:50.301Z,3.00
2023-03-06T21:42:19.330Z,3.10
2023-03-06T21:44:47.182Z,3.05
2023-03-06T21:47:14.825Z,3.20
2023-03-06T21:49:42.492Z,2.90
2023-03-06T21:52:10.150Z,3.10
2023-03-06T21:54:37.828Z,3.00
2023-03-06T21:57:05.890Z,2.90
2023-03-06T21:59:34.892Z,2.88
2023-03-06T22:02:02.542Z,2.83
2023-03-06T22:04:30.281Z,3.00
2023-03-06T22:06:57.963Z,2.90
2023-03-06T22:09:25.642Z,3.10
2023-03-06T22:11:53.282Z,2.70
2023-03-06T22:14:20.941Z,2.67
2023-03-06T22:16:51.377Z,2.90
2023-03-06T22:19:19.142Z,3.05
2023-03-06T22:21:46.802Z,2.90
2023-03-06T22:24:14.448Z,2.90
2023-03-06T22:26:42.095Z,2.50
2023-03-06T22:29:09.767Z,2.50
2023-03-06T22:31:39.962Z,2.78
2023-03-06T22:34:09.989Z,2.83
2023-03-06T22:36:37.643Z,2.50
2023-03-06T22:39:05.438Z,2.58
2023-03-06T22:41:33.132Z,2.53
2023-03-06T22:44:01.536Z,2.80
2023-03-06T22:46:29.224Z,2.70
2023-03-06T22:48:57.017Z,2.92
2023-03-06T22:51:26.071Z,2.75
2023-03-06T22:53:53.850Z,2.70
2023-03-06T22:56:22.141Z,2.80
2023-03-06T22:58:49.880Z,2.65
2023-03-06T23:01:18.416Z,2.30
2023-03-06T23:03:47.060Z,2.55
2023-03-06T23:06:15.626Z,2.70
2023-03-06T23:08:45.042Z,2.55
2023-03-06T23:11:14.133Z,2.70
2023-03-06T23:14:00.941Z,2.60
2023-03-06T23:16:47.198Z,2.63
2023-03-06T23:19:33.465Z,2.85
2023-03-06T23:22:20.050Z,2.50
2023-03-06T23:25:08.649Z,2.60
2023-03-06T23:27:36.712Z,2.45
2023-03-06T23:30:04.929Z,2.40
2023-03-06T23:32:33.489Z,2.65
2023-03-06T23:35:01.182Z,2.40
2023-03-06T23:37:28.863Z,2.60
2023-03-06T23:39:56.689Z,2.53
2023-03-06T23:42:25.685Z,2.20
2023-03-06T23:44:53.357Z,2.60
2023-03-06T23:47:21.055Z,2.40
2023-03-06T23:49:48.723Z,2.40
2023-03-06T23:52:16.371Z,2.42
2023-03-06T23:54:44.052Z,2.50
2023-03-06T23:57:11.740Z,2.30
2023-03-06T23:59:40.834Z,2.20
